Terminal Aerodrome Forecast
Issued by NWS Omaha/Valley, NE

Home | Current Version | Previous Version | Text Only | Print | Product List | Glossary On
Versions: 1 2 3 4 5 6 7 8 9 10 11 12 13 14 15 16 17 18 19 20 21 22 23 24 25 26 27 28 29
000
FTUS43 KOAX 210520
TAFLNK
TAF
KLNK 210520Z 2106/2206 VRB03KT 1/2SM -DZ FG OVC002
     FM211000 23004KT 1SM -DZ BR OVC003
     FM211200 25005KT 2SM BR OVC008
     FM211400 25005KT 3SM BR OVC015
     FM211700 26005KT P6SM BKN120=

USA.gov is the U.S. government's official web portal to all federal, state and local government web resources and services.